sensor_id;sensor_type;location;lat;lon;timestamp;P1;durP1;ratioP1;P2;durP2;ratioP2
47812;SDS011;34221;45.296;9.516;2023-04-15T00:00:03;8.18;;;4.55;;
47812;SDS011;34221;45.296;9.516;2023-04-15T00:00:27;10.32;;;4.80;;
47812;SDS011;34221;45.296;9.516;2023-04-15T00:00:47;7.88;;;4.32;;
47812;SDS011;34221;45.296;9.516;2023-04-15T00:01:02;7.68;;;4.43;;
47812;SDS011;34221;45.296;9.516;2023-04-15T00:01:17;8.00;;;4.65;;
47812;SDS011;34221;45.296;9.516;2023-04-15T00:01:32;7.00;;;4.60;;
47812;SDS011;34221;45.296;9.516;2023-04-15T00:01:50;7.60;;;4.78;;
47812;SDS011;34221;45.296;9.516;2023-04-15T00:02:18;7.28;;;4.60;;
47812;SDS011;34221;45.296;9.516;2023-04-15T00:02:33;6.53;;;3.85;;
47812;SDS011;34221;45.296;9.516;2023-04-15T00:02:49;6.43;;;3.78;;
47812;SDS011;34221;45.296;9.516;2023-04-15T00:03:04;7.13;;;3.75;;
47812;SDS011;34221;45.296;9.516;2023-04-15T00:03:19;8.27;;;4.00;;
47812;SDS011;34221;45.296;9.516;2023-04-15T00:03:34;7.70;;;3.97;;
47812;SDS011;34221;45.296;9.516;2023-04-15T00:03:52;6.97;;;4.28;;
47812;SDS011;34221;45.296;9.516;2023-04-15T00:04:08;7.50;;;4.25;;
47812;SDS011;34221;45.296;9.516;2023-04-15T00:04:23;7.07;;;4.05;;
47812;SDS011;34221;45.296;9.516;2023-04-15T00:04:38;6.82;;;4.10;;
47812;SDS011;34221;45.296;9.516;2023-04-15T00:04:53;6.43;;;4.13;;
47812;SDS011;34221;45.296;9.516;2023-04-15T00:05:08;7.43;;;4.45;;
47812;SDS011;34221;45.296;9.516;2023-04-15T00:05:23;8.25;;;4.68;;
47812;SDS011;34221;45.296;9.516;2023-04-15T00:05:38;8.45;;;4.60;;
47812;SDS011;34221;45.296;9.516;2023-04-15T00:05:53;8.48;;;4.97;;
47812;SDS011;34221;45.296;9.516;2023-04-15T00:06:07;7.97;;;5.05;;
47812;SDS011;34221;45.296;9.516;2023-04-15T00:06:23;7.72;;;4.68;;
47812;SDS011;34221;45.296;9.516;2023-04-15T00:06:38;6.60;;;4.46;;
47812;SDS011;34221;45.296;9.516;2023-04-15T00:06:53;7.32;;;4.47;;
47812;SDS011;34221;45.296;9.516;2023-04-15T00:07:08;7.97;;;4.57;;
47812;SDS011;34221;45.296;9.516;2023-04-15T00:07:23;7.70;;;4.43;;
47812;SDS011;34221;45.296;9.516;2023-04-15T00:07:38;7.30;;;4.25;;
47812;SDS011;34221;45.296;9.516;2023-04-15T00:07:53;6.88;;;4.13;;
47812;SDS011;34221;45.296;9.516;2023-04-15T00:08:08;6.93;;;4.50;;
47812;SDS011;34221;45.296;9.516;2023-04-15T00:08:23;7.43;;;4.88;;
47812;SDS011;34221;45.296;9.516;2023-04-15T00:08:38;6.63;;;4.45;;
47812;SDS011;34221;45.296;9.516;2023-04-15T00:08:53;6.38;;;4.13;;
47812;SDS011;34221;45.296;9.516;2023-04-15T00:09:09;8.48;;;4.40;;
47812;SDS011;34221;45.296;9.516;2023-04-15T00:09:24;8.27;;;4.60;;
47812;SDS011;34221;45.296;9.516;2023-04-15T00:09:42;6.47;;;4.28;;
47812;SDS011;34221;45.296;9.516;2023-04-15T00:09:58;7.20;;;4.28;;
47812;SDS011;34221;45.296;9.516;2023-04-15T00:10:13;6.72;;;4.22;;
47812;SDS011;34221;45.296;9.516;2023-04-15T00:10:28;7.25;;;4.28;;
47812;SDS011;34221;45.296;9.516;2023-04-15T00:10:43;7.80;;;4.22;;
47812;SDS011;34221;45.296;9.516;2023-04-15T00:10:59;7.85;;;4.40;;
47812;SDS011;34221;45.296;9.516;2023-04-15T00:11:18;6.35;;;4.20;;
47812;SDS011;34221;45.296;9.516;2023-04-15T00:11:33;6.10;;;4.07;;
47812;SDS011;34221;45.296;9.516;2023-04-15T00:11:49;6.70;;;4.40;;
47812;SDS011;34221;45.296;9.516;2023-04-15T00:12:04;7.13;;;4.72;;
47812;SDS011;34221;45.296;9.516;2023-04-15T00:12:20;7.57;;;4.57;;
47812;SDS011;34221;45.296;9.516;2023-04-15T00:12:35;7.55;;;4.32;;
47812;SDS011;34221;45.296;9.516;2023-04-15T00:12:50;7.13;;;4.70;;
47812;SDS011;34221;45.296;9.516;2023-04-15T00:13:05;7.05;;;4.65;;
47812;SDS011;34221;45.296;9.516;2023-04-15T00:13:20;7.43;;;4.32;;
47812;SDS011;34221;45.296;9.516;2023-04-15T00:13:35;7.70;;;4.50;;
47812;SDS011;34221;45.296;9.516;2023-04-15T00:13:51;7.03;;;4.50;;
47812;SDS011;34221;45.296;9.516;2023-04-15T00:14:05;6.70;;;4.30;;
47812;SDS011;34221;45.296;9.516;2023-04-15T00:14:20;6.38;;;4.00;;
47812;SDS011;34221;45.296;9.516;2023-04-15T00:14:35;6.28;;;4.25;;
47812;SDS011;34221;45.296;9.516;2023-04-15T00:14:50;8.27;;;4.57;;
47812;SDS011;34221;45.296;9.516;2023-04-15T00:15:05;9.10;;;4.72;;
47812;SDS011;34221;45.296;9.516;2023-04-15T00:15:22;7.30;;;4.55;;
47812;SDS011;34221;45.296;9.516;2023-04-15T00:15:37;6.38;;;4.43;;
47812;SDS011;34221;45.296;9.516;2023-04-15T00:15:52;6.32;;;4.50;;
47812;SDS011;34221;45.296;9.516;2023-04-15T00:16:07;5.95;;;4.45;;
47812;SDS011;34221;45.296;9.516;2023-04-15T00:16:23;5.82;;;4.55;;
47812;SDS011;34221;45.296;9.516;2023-04-15T00:16:39;6.93;;;4.60;;
47812;SDS011;34221;45.296;9.516;2023-04-15T00:16:54;7.28;;;4.32;;
47812;SDS011;34221;45.296;9.516;2023-04-15T00:17:10;7.00;;;4.55;;
47812;SDS011;34221;45.296;9.516;2023-04-15T00:17:25;6.82;;;4.70;;
47812;SDS011;34221;45.296;9.516;2023-04-15T00:17:40;6.80;;;4.57;;
47812;SDS011;34221;45.296;9.516;2023-04-15T00:17:55;6.90;;;4.45;;
47812;SDS011;34221;45.296;9.516;2023-04-15T00:18:10;7.38;;;4.55;;
47812;SDS011;34221;45.296;9.516;2023-04-15T00:18:25;7.70;;;4.80;;
47812;SDS011;34221;45.296;9.516;2023-04-15T00:18:40;7.15;;;4.60;;
47812;SDS011;34221;45.296;9.516;2023-04-15T00:18:55;7.07;;;4.45;;
47812;SDS011;34221;45.296;9.516;2023-04-15T00:19:10;9.68;;;4.70;;
47812;SDS011;34221;45.296;9.516;2023-04-15T00:19:25;9.55;;;4.70;;
47812;SDS011;34221;45.296;9.516;2023-04-15T00:19:40;7.55;;;4.63;;
47812;SDS011;34221;45.296;9.516;2023-04-15T00:19:55;7.07;;;4.57;;
47812;SDS011;34221;45.296;9.516;2023-04-15T00:20:13;6.80;;;4.47;;
47812;SDS011;34221;45.296;9.516;2023-04-15T00:20:28;8.13;;;4.72;;
47812;SDS011;34221;45.296;9.516;2023-04-15T00:20:43;7.85;;;4.63;;
47812;SDS011;34221;45.296;9.516;2023-04-15T00:20:58;7.93;;;4.63;;
47812;SDS011;34221;45.296;9.516;2023-04-15T00:21:13;7.43;;;4.47;;
47812;SDS011;34221;45.296;9.516;2023-04-15T00:21:28;6.70;;;4.50;;
47812;SDS011;34221;45.296;9.516;2023-04-15T00:21:43;8.52;;;4.75;;
47812;SDS011;34221;45.296;9.516;2023-04-15T00:21:59;9.90;;;4.68;;
47812;SDS011;34221;45.296;9.516;2023-04-15T00:22:14;13.02;;;4.55;;
47812;SDS011;34221;45.296;9.516;2023-04-15T00:22:29;12.23;;;4.90;;
47812;SDS011;34221;45.296;9.516;2023-04-15T00:22:44;7.18;;;4.63;;
47812;SDS011;34221;45.296;9.516;2023-04-15T00:23:00;6.25;;;4.03;;
47812;SDS011;34221;45.296;9.516;2023-04-15T00:23:17;6.40;;;4.15;;
47812;SDS011;34221;45.296;9.516;2023-04-15T00:23:32;7.68;;;4.40;;
47812;SDS011;34221;45.296;9.516;2023-04-15T00:23:47;6.80;;;4.18;;
47812;SDS011;34221;45.296;9.516;2023-04-15T00:24:05;5.72;;;4.15;;
47812;SDS011;34221;45.296;9.516;2023-04-15T00:24:20;7.75;;;4.70;;
47812;SDS011;34221;45.296;9.516;2023-04-15T00:24:36;9.15;;;4.90;;
47812;SDS011;34221;45.296;9.516;2023-04-15T00:24:52;8.50;;;4.65;;
47812;SDS011;34221;45.296;9.516;2023-04-15T00:25:07;7.72;;;4.75;;
47812;SDS011;34221;45.296;9.516;2023-04-15T00:25:22;7.00;;;4.93;;
47812;SDS011;34221;45.296;9.516;2023-04-15T00:25:37;7.75;;;4.70;;
47812;SDS011;34221;45.296;9.516;2023-04-15T00:25:53;8.00;;;4.57;;
47812;SDS011;34221;45.296;9.516;2023-04-15T00:26:08;7.40;;;4.38;;
47812;SDS011;34221;45.296;9.516;2023-04-15T00:26:23;7.35;;;4.25;;
47812;SDS011;34221;45.296;9.516;2023-04-15T00:26:39;7.68;;;4.72;;
47812;SDS011;34221;45.296;9.516;2023-04-15T00:26:53;7.50;;;4.80;;
47812;SDS011;34221;45.296;9.516;2023-04-15T00:27:08;7.60;;;4.90;;
47812;SDS011;34221;45.296;9.516;2023-04-15T00:27:24;7.47;;;4.78;;
47812;SDS011;34221;45.296;9.516;2023-04-15T00:27:39;6.27;;;4.30;;
47812;SDS011;34221;45.296;9.516;2023-04-15T00:27:54;6.32;;;4.38;;
47812;SDS011;34221;45.296;9.516;2023-04-15T00:28:09;6.95;;;4.55;;
47812;SDS011;34221;45.296;9.516;2023-04-15T00:28:24;8.23;;;4.72;;
47812;SDS011;34221;45.296;9.516;2023-04-15T00:28:39;8.80;;;4.75;;
47812;SDS011;34221;45.296;9.516;2023-04-15T00:28:54;7.63;;;4.53;;
47812;SDS011;34221;45.296;9.516;2023-04-15T00:29:09;7.57;;;4.75;;
47812;SDS011;34221;45.296;9.516;2023-04-15T00:29:24;8.00;;;4.95;;
47812;SDS011;34221;45.296;9.516;2023-04-15T00:29:39;8.30;;;4.90;;
47812;SDS011;34221;45.296;9.516;2023-04-15T00:29:54;8.65;;;4.85;;
47812;SDS011;34221;45.296;9.516;2023-04-15T00:30:10;8.43;;;4.90;;
47812;SDS011;34221;45.296;9.516;2023-04-15T00:30:26;8.40;;;4.82;;
47812;SDS011;34221;45.296;9.516;2023-04-15T00:30:41;7.70;;;4.87;;
47812;SDS011;34221;45.296;9.516;2023-04-15T00:30:56;7.68;;;5.10;;
47812;SDS011;34221;45.296;9.516;2023-04-15T00:31:11;7.80;;;5.07;;
47812;SDS011;34221;45.296;9.516;2023-04-15T00:31:26;7.20;;;4.95;;
47812;SDS011;34221;45.296;9.516;2023-04-15T00:31:42;6.38;;;4.65;;
47812;SDS011;34221;45.296;9.516;2023-04-15T00:31:57;6.53;;;4.47;;
47812;SDS011;34221;45.296;9.516;2023-04-15T00:32:12;8.02;;;4.68;;
47812;SDS011;34221;45.296;9.516;2023-04-15T00:32:28;8.93;;;4.90;;
47812;SDS011;34221;45.296;9.516;2023-04-15T00:32:43;8.68;;;5.15;;
47812;SDS011;34221;45.296;9.516;2023-04-15T00:32:58;7.13;;;4.88;;
47812;SDS011;34221;45.296;9.516;2023-04-15T00:33:15;7.22;;;4.65;;
47812;SDS011;34221;45.296;9.516;2023-04-15T00:33:30;6.93;;;4.53;;
47812;SDS011;34221;45.296;9.516;2023-04-15T00:33:46;6.22;;;4.40;;
47812;SDS011;34221;45.296;9.516;2023-04-15T00:34:01;6.43;;;4.53;;
47812;SDS011;34221;45.296;9.516;2023-04-15T00:34:17;6.90;;;4.75;;
47812;SDS011;34221;45.296;9.516;2023-04-15T00:34:32;8.70;;;4.90;;
47812;SDS011;34221;45.296;9.516;2023-04-15T00:34:47;9.77;;;5.20;;
47812;SDS011;34221;45.296;9.516;2023-04-15T00:35:03;9.13;;;4.88;;
47812;SDS011;34221;45.296;9.516;2023-04-15T00:35:18;7.95;;;4.57;;
47812;SDS011;34221;45.296;9.516;2023-04-15T00:35:33;7.70;;;4.43;;
47812;SDS011;34221;45.296;9.516;2023-04-15T00:35:51;8.50;;;4.32;;
47812;SDS011;34221;45.296;9.516;2023-04-15T00:36:06;8.38;;;4.57;;
47812;SDS011;34221;45.296;9.516;2023-04-15T00:36:22;8.98;;;5.07;;
47812;SDS011;34221;45.296;9.516;2023-04-15T00:36:38;8.13;;;5.07;;
47812;SDS011;34221;45.296;9.516;2023-04-15T00:36:53;6.38;;;4.57;;
47812;SDS011;34221;45.296;9.516;2023-04-15T00:37:08;7.10;;;4.47;;
47812;SDS011;34221;45.296;9.516;2023-04-15T00:37:24;6.95;;;4.13;;
47812;SDS011;34221;45.296;9.516;2023-04-15T00:37:39;6.45;;;4.47;;
47812;SDS011;34221;45.296;9.516;2023-04-15T00:37:54;7.50;;;4.90;;
47812;SDS011;34221;45.296;9.516;2023-04-15T00:38:09;8.68;;;4.95;;
47812;SDS011;34221;45.296;9.516;2023-04-15T00:38:24;8.73;;;4.75;;
47812;SDS011;34221;45.296;9.516;2023-04-15T00:38:39;7.90;;;4.90;;
47812;SDS011;34221;45.296;9.516;2023-04-15T00:38:54;7.65;;;5.05;;
47812;SDS011;34221;45.296;9.516;2023-04-15T00:39:09;8.43;;;5.25;;
47812;SDS011;34221;45.296;9.516;2023-04-15T00:39:24;8.32;;;5.30;;
47812;SDS011;34221;45.296;9.516;2023-04-15T00:39:39;9.18;;;5.22;;
47812;SDS011;34221;45.296;9.516;2023-04-15T00:40:15;8.52;;;4.90;;
47812;SDS011;34221;45.296;9.516;2023-04-15T00:40:32;8.45;;;4.95;;
47812;SDS011;34221;45.296;9.516;2023-04-15T00:40:47;8.13;;;4.97;;
47812;SDS011;34221;45.296;9.516;2023-04-15T00:41:02;9.65;;;4.82;;
47812;SDS011;34221;45.296;9.516;2023-04-15T00:41:18;10.45;;;5.00;;
47812;SDS011;34221;45.296;9.516;2023-04-15T00:41:34;8.60;;;4.88;;
47812;SDS011;34221;45.296;9.516;2023-04-15T00:41:52;6.93;;;4.63;;
47812;SDS011;34221;45.296;9.516;2023-04-15T00:42:09;6.70;;;4.53;;
47812;SDS011;34221;45.296;9.516;2023-04-15T00:42:24;7.43;;;4.70;;
47812;SDS011;34221;45.296;9.516;2023-04-15T00:42:39;7.32;;;4.78;;
47812;SDS011;34221;45.296;9.516;2023-04-15T00:42:54;7.65;;;4.88;;
47812;SDS011;34221;45.296;9.516;2023-04-15T00:43:09;8.00;;;5.40;;
47812;SDS011;34221;45.296;9.516;2023-04-15T00:43:24;6.75;;;5.05;;
47812;SDS011;34221;45.296;9.516;2023-04-15T00:43:39;6.55;;;4.70;;
47812;SDS011;34221;45.296;9.516;2023-04-15T00:43:55;8.77;;;5.00;;
47812;SDS011;34221;45.296;9.516;2023-04-15T00:44:10;8.63;;;4.70;;
47812;SDS011;34221;45.296;9.516;2023-04-15T00:44:25;6.97;;;4.72;;
47812;SDS011;34221;45.296;9.516;2023-04-15T00:44:41;6.85;;;4.72;;
47812;SDS011;34221;45.296;9.516;2023-04-15T00:44:56;6.55;;;4.55;;
47812;SDS011;34221;45.296;9.516;2023-04-15T00:45:11;7.20;;;4.72;;
47812;SDS011;34221;45.296;9.516;2023-04-15T00:45:27;7.93;;;4.60;;
47812;SDS011;34221;45.296;9.516;2023-04-15T00:45:42;8.23;;;4.82;;
47812;SDS011;34221;45.296;9.516;2023-04-15T00:45:57;7.90;;;5.22;;
47812;SDS011;34221;45.296;9.516;2023-04-15T00:46:14;7.63;;;5.20;;
47812;SDS011;34221;45.296;9.516;2023-04-15T00:46:30;6.88;;;4.80;;
47812;SDS011;34221;45.296;9.516;2023-04-15T00:46:49;7.10;;;4.97;;
47812;SDS011;34221;45.296;9.516;2023-04-15T00:47:05;7.78;;;5.32;;
47812;SDS011;34221;45.296;9.516;2023-04-15T00:47:21;8.00;;;5.10;;
47812;SDS011;34221;45.296;9.516;2023-04-15T00:47:36;7.88;;;5.05;;
47812;SDS011;34221;45.296;9.516;2023-04-15T00:47:55;7.35;;;5.07;;
47812;SDS011;34221;45.296;9.516;2023-04-15T00:48:10;7.10;;;5.03;;
47812;SDS011;34221;45.296;9.516;2023-04-15T00:48:27;8.05;;;5.13;;
47812;SDS011;34221;45.296;9.516;2023-04-15T00:48:42;9.38;;;5.10;;
47812;SDS011;34221;45.296;9.516;2023-04-15T00:48:58;9.35;;;5.22;;
47812;SDS011;34221;45.296;9.516;2023-04-15T00:49:13;9.15;;;5.38;;
47812;SDS011;34221;45.296;9.516;2023-04-15T00:49:28;9.15;;;5.35;;
47812;SDS011;34221;45.296;9.516;2023-04-15T00:49:43;8.77;;;5.07;;
47812;SDS011;34221;45.296;9.516;2023-04-15T00:49:58;7.60;;;4.57;;
47812;SDS011;34221;45.296;9.516;2023-04-15T00:50:13;7.25;;;4.60;;
47812;SDS011;34221;45.296;9.516;2023-04-15T00:50:28;7.10;;;4.90;;
47812;SDS011;34221;45.296;9.516;2023-04-15T00:50:42;7.88;;;5.07;;
47812;SDS011;34221;45.296;9.516;2023-04-15T00:50:57;8.20;;;4.93;;
47812;SDS011;34221;45.296;9.516;2023-04-15T00:51:13;7.80;;;4.75;;
47812;SDS011;34221;45.296;9.516;2023-04-15T00:51:28;8.18;;;4.82;;
47812;SDS011;34221;45.296;9.516;2023-04-15T00:51:44;7.43;;;4.70;;
47812;SDS011;34221;45.296;9.516;2023-04-15T00:51:59;6.95;;;4.63;;
47812;SDS011;34221;45.296;9.516;2023-04-15T00:52:14;8.82;;;5.03;;
47812;SDS011;34221;45.296;9.516;2023-04-15T00:52:30;8.32;;;5.30;;
47812;SDS011;34221;45.296;9.516;2023-04-15T00:52:45;8.95;;;5.40;;
47812;SDS011;34221;45.296;9.516;2023-04-15T00:53:00;10.25;;;4.97;;
47812;SDS011;34221;45.296;9.516;2023-04-15T00:53:15;9.38;;;4.95;;
47812;SDS011;34221;45.296;9.516;2023-04-15T00:53:30;8.93;;;5.13;;
47812;SDS011;34221;45.296;9.516;2023-04-15T00:53:45;7.70;;;4.80;;
47812;SDS011;34221;45.296;9.516;2023-04-15T00:54:00;7.05;;;4.65;;
47812;SDS011;34221;45.296;9.516;2023-04-15T00:54:19;7.45;;;4.75;;
47812;SDS011;34221;45.296;9.516;2023-04-15T00:54:34;8.15;;;5.03;;
47812;SDS011;34221;45.296;9.516;2023-04-15T00:54:51;7.72;;;5.03;;
47812;SDS011;34221;45.296;9.516;2023-04-15T00:55:07;6.32;;;4.55;;
47812;SDS011;34221;45.296;9.516;2023-04-15T00:55:23;6.18;;;4.80;;
47812;SDS011;34221;45.296;9.516;2023-04-15T00:55:38;8.73;;;4.88;;
47812;SDS011;34221;45.296;9.516;2023-04-15T00:55:53;9.73;;;5.07;;
47812;SDS011;34221;45.296;9.516;2023-04-15T00:56:09;7.80;;;5.40;;
47812;SDS011;34221;45.296;9.516;2023-04-15T00:56:24;6.72;;;5.20;;
47812;SDS011;34221;45.296;9.516;2023-04-15T00:56:42;6.50;;;4.70;;
47812;SDS011;34221;45.296;9.516;2023-04-15T00:56:57;6.97;;;4.55;;
47812;SDS011;34221;45.296;9.516;2023-04-15T00:57:12;10.05;;;4.72;;
47812;SDS011;34221;45.296;9.516;2023-04-15T00:57:27;10.23;;;5.17;;
47812;SDS011;34221;45.296;9.516;2023-04-15T00:57:42;7.43;;;5.23;;
47812;SDS011;34221;45.296;9.516;2023-04-15T00:57:58;7.82;;;5.22;;
47812;SDS011;34221;45.296;9.516;2023-04-15T00:58:13;7.40;;;5.13;;
47812;SDS011;34221;45.296;9.516;2023-04-15T00:58:29;7.28;;;4.80;;
47812;SDS011;34221;45.296;9.516;2023-04-15T00:58:44;7.68;;;5.05;;
47812;SDS011;34221;45.296;9.516;2023-04-15T00:58:59;6.55;;;5.05;;
47812;SDS011;34221;45.296;9.516;2023-04-15T00:59:16;7.47;;;5.40;;
47812;SDS011;34221;45.296;9.516;2023-04-15T00:59:32;8.07;;;5.25;;
47812;SDS011;34221;45.296;9.516;2023-04-15T00:59:48;8.02;;;5.10;;
47812;SDS011;34221;45.296;9.516;2023-04-15T01:00:05;7.88;;;5.57;;
47812;SDS011;34221;45.296;9.516;2023-04-15T01:00:22;8.30;;;5.55;;
47812;SDS011;34221;45.296;9.516;2023-04-15T01:00:37;8.30;;;5.20;;
47812;SDS011;34221;45.296;9.516;2023-04-15T01:00:53;7.55;;;5.20;;
47812;SDS011;34221;45.296;9.516;2023-04-15T01:01:09;7.88;;;5.20;;
47812;SDS011;34221;45.296;9.516;2023-04-15T01:01:25;8.40;;;5.32;;
47812;SDS011;34221;45.296;9.516;2023-04-15T01:01:40;8.43;;;5.50;;
47812;SDS011;34221;45.296;9.516;2023-04-15T01:01:55;7.07;;;5.05;;
47812;SDS011;34221;45.296;9.516;2023-04-15T01:02:10;6.47;;;4.75;;
47812;SDS011;34221;45.296;9.516;2023-04-15T01:02:25;6.65;;;5.07;;
47812;SDS011;34221;45.296;9.516;2023-04-15T01:02:41;7.22;;;5.32;;
47812;SDS011;34221;45.296;9.516;2023-04-15T01:02:56;7.53;;;5.32;;
47812;SDS011;34221;45.296;9.516;2023-04-15T01:03:11;8.30;;;5.50;;
47812;SDS011;34221;45.296;9.516;2023-04-15T01:03:26;8.40;;;5.47;;
47812;SDS011;34221;45.296;9.516;2023-04-15T01:03:42;9.27;;;5.63;;
47812;SDS011;34221;45.296;9.516;2023-04-15T01:03:57;9.48;;;5.55;;
47812;SDS011;34221;45.296;9.516;2023-04-15T01:04:12;8.50;;;5.20;;
47812;SDS011;34221;45.296;9.516;2023-04-15T01:04:28;8.43;;;5.20;;
47812;SDS011;34221;45.296;9.516;2023-04-15T01:04:43;8.07;;;5.13;;
47812;SDS011;34221;45.296;9.516;2023-04-15T01:04:58;8.35;;;4.93;;
47812;SDS011;34221;45.296;9.516;2023-04-15T01:05:13;8.40;;;5.15;;
47812;SDS011;34221;45.296;9.516;2023-04-15T01:05:31;8.43;;;5.18;;
47812;SDS011;34221;45.296;9.516;2023-04-15T01:05:47;9.30;;;5.38;;
47812;SDS011;34221;45.296;9.516;2023-04-15T01:06:03;9.00;;;5.35;;
47812;SDS011;34221;45.296;9.516;2023-04-15T01:06:18;8.10;;;4.90;;
47812;SDS011;34221;45.296;9.516;2023-04-15T01:06:33;7.63;;;4.88;;
47812;SDS011;34221;45.296;9.516;2023-04-15T01:06:48;8.07;;;5.43;;
47812;SDS011;34221;45.296;9.516;2023-04-15T01:07:03;7.95;;;5.35;;
47812;SDS011;34221;45.296;9.516;2023-04-15T01:07:18;8.00;;;5.10;;
47812;SDS011;34221;45.296;9.516;2023-04-15T01:07:33;8.32;;;5.07;;
47812;SDS011;34221;45.296;9.516;2023-04-15T01:07:48;8.80;;;5.28;;
47812;SDS011;34221;45.296;9.516;2023-04-15T01:08:03;8.85;;;5.40;;
47812;SDS011;34221;45.296;9.516;2023-04-15T01:08:19;8.65;;;5.38;;
47812;SDS011;34221;45.296;9.516;2023-04-15T01:08:34;8.40;;;5.40;;
47812;SDS011;34221;45.296;9.516;2023-04-15T01:08:49;7.22;;;5.13;;
47812;SDS011;34221;45.296;9.516;2023-04-15T01:09:04;6.43;;;5.07;;
47812;SDS011;34221;45.296;9.516;2023-04-15T01:09:19;7.57;;;5.13;;
47812;SDS011;34221;45.296;9.516;2023-04-15T01:09:34;8.60;;;5.20;;
47812;SDS011;34221;45.296;9.516;2023-04-15T01:09:49;7.85;;;5.20;;
47812;SDS011;34221;45.296;9.516;2023-04-15T01:10:06;7.15;;;5.18;;
47812;SDS011;34221;45.296;9.516;2023-04-15T01:10:22;7.50;;;5.50;;
47812;SDS011;34221;45.296;9.516;2023-04-15T01:10:37;8.27;;;5.85;;
47812;SDS011;34221;45.296;9.516;2023-04-15T01:10:53;7.45;;;5.18;;
47812;SDS011;34221;45.296;9.516;2023-04-15T01:11:16;8.53;;;5.23;;
47812;SDS011;34221;45.296;9.516;2023-04-15T01:11:32;10.15;;;5.50;;
47812;SDS011;34221;45.296;9.516;2023-04-15T01:11:48;9.82;;;5.38;;
47812;SDS011;34221;45.296;9.516;2023-04-15T01:12:03;9.00;;;5.25;;
47812;SDS011;34221;45.296;9.516;2023-04-15T01:12:21;10.45;;;5.68;;
47812;SDS011;34221;45.296;9.516;2023-04-15T01:12:39;8.68;;;5.60;;
47812;SDS011;34221;45.296;9.516;2023-04-15T01:12:55;8.02;;;5.10;;
47812;SDS011;34221;45.296;9.516;2023-04-15T01:13:10;7.35;;;4.95;;
47812;SDS011;34221;45.296;9.516;2023-04-15T01:13:27;7.13;;;5.22;;
47812;SDS011;34221;45.296;9.516;2023-04-15T01:13:43;9.30;;;5.72;;
47812;SDS011;34221;45.296;9.516;2023-04-15T01:13:58;11.00;;;6.13;;
47812;SDS011;34221;45.296;9.516;2023-04-15T01:14:13;10.05;;;5.90;;
47812;SDS011;34221;45.296;9.516;2023-04-15T01:14:28;8.38;;;5.55;;
47812;SDS011;34221;45.296;9.516;2023-04-15T01:14:43;7.13;;;5.18;;
47812;SDS011;34221;45.296;9.516;2023-04-15T01:14:58;6.70;;;5.18;;
47812;SDS011;34221;45.296;9.516;2023-04-15T01:15:14;7.10;;;5.13;;
47812;SDS011;34221;45.296;9.516;2023-04-15T01:15:29;7.88;;;4.88;;
47812;SDS011;34221;45.296;9.516;2023-04-15T01:15:45;8.35;;;5.15;;
47812;SDS011;34221;45.296;9.516;2023-04-15T01:16:01;10.60;;;5.22;;
47812;SDS011;34221;45.296;9.516;2023-04-15T01:16:17;10.00;;;5.30;;
47812;SDS011;34221;45.296;9.516;2023-04-15T01:16:33;7.95;;;5.55;;
47812;SDS011;34221;45.296;9.516;2023-04-15T01:16:48;7.22;;;5.28;;
47812;SDS011;34221;45.296;9.516;2023-04-15T01:17:03;7.80;;;5.20;;
47812;SDS011;34221;45.296;9.516;2023-04-15T01:17:18;8.85;;;5.40;;
47812;SDS011;34221;45.296;9.516;2023-04-15T01:17:33;9.02;;;5.53;;
47812;SDS011;34221;45.296;9.516;2023-04-15T01:17:48;8.32;;;5.63;;
47812;SDS011;34221;45.296;9.516;2023-04-15T01:18:03;8.07;;;5.53;;
47812;SDS011;34221;45.296;9.516;2023-04-15T01:18:19;8.25;;;5.53;;
47812;SDS011;34221;45.296;9.516;2023-04-15T01:18:35;8.60;;;5.93;;
47812;SDS011;34221;45.296;9.516;2023-04-15T01:18:51;8.77;;;5.95;;
47812;SDS011;34221;45.296;9.516;2023-04-15T01:19:09;8.68;;;5.65;;
47812;SDS011;34221;45.296;9.516;2023-04-15T01:19:25;7.68;;;5.22;;
47812;SDS011;34221;45.296;9.516;2023-04-15T01:19:40;8.07;;;5.50;;
47812;SDS011;34221;45.296;9.516;2023-04-15T01:19:56;9.43;;;6.10;;
47812;SDS011;34221;45.296;9.516;2023-04-15T01:20:11;9.07;;;5.95;;
47812;SDS011;34221;45.296;9.516;2023-04-15T01:20:26;8.45;;;5.78;;
47812;SDS011;34221;45.296;9.516;2023-04-15T01:20:43;10.15;;;5.60;;
47812;SDS011;34221;45.296;9.516;2023-04-15T01:20:58;10.55;;;5.40;;
47812;SDS011;34221;45.296;9.516;2023-04-15T01:21:18;8.73;;;5.50;;
47812;SDS011;34221;45.296;9.516;2023-04-15T01:21:37;7.53;;;5.38;;
47812;SDS011;34221;45.296;9.516;2023-04-15T01:21:53;6.45;;;4.93;;
47812;SDS011;34221;45.296;9.516;2023-04-15T01:22:08;6.68;;;5.35;;
47812;SDS011;34221;45.296;9.516;2023-04-15T01:22:26;9.90;;;6.25;;
47812;SDS011;34221;45.296;9.516;2023-04-15T01:22:41;9.82;;;6.10;;
47812;SDS011;34221;45.296;9.516;2023-04-15T01:22:57;7.53;;;5.55;;
47812;SDS011;34221;45.296;9.516;2023-04-15T01:23:12;7.75;;;5.85;;
47812;SDS011;34221;45.296;9.516;2023-04-15T01:23:28;9.25;;;6.13;;
47812;SDS011;34221;45.296;9.516;2023-04-15T01:23:43;10.02;;;6.07;;
47812;SDS011;34221;45.296;9.516;2023-04-15T01:24:00;8.70;;;6.03;;
47812;SDS011;34221;45.296;9.516;2023-04-15T01:24:19;8.32;;;6.00;;
47812;SDS011;34221;45.296;9.516;2023-04-15T01:24:34;10.02;;;6.05;;
47812;SDS011;34221;45.296;9.516;2023-04-15T01:24:59;11.77;;;6.57;;
47812;SDS011;34221;45.296;9.516;2023-04-15T01:25:42;9.80;;;6.45;;
47812;SDS011;34221;45.296;9.516;2023-04-15T01:25:57;7.65;;;5.93;;
47812;SDS011;34221;45.296;9.516;2023-04-15T01:26:14;8.18;;;5.68;;
47812;SDS011;34221;45.296;9.516;2023-04-15T01:26:30;7.72;;;5.55;;
47812;SDS011;34221;45.296;9.516;2023-04-15T01:26:45;6.95;;;5.50;;
47812;SDS011;34221;45.296;9.516;2023-04-15T01:27:03;8.43;;;5.68;;
47812;SDS011;34221;45.296;9.516;2023-04-15T01:27:19;11.55;;;6.15;;
47812;SDS011;34221;45.296;9.516;2023-04-15T01:27:35;12.73;;;6.75;;
47812;SDS011;34221;45.296;9.516;2023-04-15T01:27:55;11.35;;;6.80;;
47812;SDS011;34221;45.296;9.516;2023-04-15T01:28:11;9.45;;;6.70;;
47812;SDS011;34221;45.296;9.516;2023-04-15T01:28:26;8.30;;;6.25;;
47812;SDS011;34221;45.296;9.516;2023-04-15T01:28:41;9.15;;;5.97;;
47812;SDS011;34221;45.296;9.516;2023-04-15T01:28:56;9.10;;;5.60;;
47812;SDS011;34221;45.296;9.516;2023-04-15T01:29:11;9.18;;;5.93;;
47812;SDS011;34221;45.296;9.516;2023-04-15T01:29:26;10.23;;;6.32;;
47812;SDS011;34221;45.296;9.516;2023-04-15T01:29:41;10.57;;;6.13;;
47812;SDS011;34221;45.296;9.516;2023-04-15T01:29:56;9.50;;;6.10;;
47812;SDS011;34221;45.296;9.516;2023-04-15T01:30:13;8.27;;;6.05;;
47812;SDS011;34221;45.296;9.516;2023-04-15T01:30:28;7.68;;;5.72;;
47812;SDS011;34221;45.296;9.516;2023-04-15T01:30:48;7.63;;;5.63;;
47812;SDS011;34221;45.296;9.516;2023-04-15T01:31:06;9.10;;;5.72;;
47812;SDS011;34221;45.296;9.516;2023-04-15T01:31:26;9.48;;;6.28;;
47812;SDS011;34221;45.296;9.516;2023-04-15T01:31:48;7.72;;;5.78;;
47812;SDS011;34221;45.296;9.516;2023-04-15T01:32:26;10.23;;;6.25;;
47812;SDS011;34221;45.296;9.516;2023-04-15T01:32:59;7.07;;;5.53;;
47812;SDS011;34221;45.296;9.516;2023-04-15T01:33:33;9.20;;;6.32;;
47812;SDS011;34221;45.296;9.516;2023-04-15T01:34:06;10.48;;;6.53;;
47812;SDS011;34221;45.296;9.516;2023-04-15T01:34:40;9.38;;;6.07;;
47812;SDS011;34221;45.296;9.516;2023-04-15T01:35:14;8.98;;;5.57;;
47812;SDS011;34221;45.296;9.516;2023-04-15T01:35:35;10.00;;;5.90;;
47812;SDS011;34221;45.296;9.516;2023-04-15T01:35:50;9.52;;;6.13;;
47812;SDS011;34221;45.296;9.516;2023-04-15T01:36:05;10.52;;;6.45;;
47812;SDS011;34221;45.296;9.516;2023-04-15T01:36:21;10.68;;;6.38;;
47812;SDS011;34221;45.296;9.516;2023-04-15T01:36:40;10.82;;;6.32;;
47812;SDS011;34221;45.296;9.516;2023-04-15T01:36:55;10.73;;;6.40;;
47812;SDS011;34221;45.296;9.516;2023-04-15T01:37:10;8.60;;;6.03;;